Time;durP1;ratioP1;P1;durP2;ratioP2;P2;SDS_P1;SDS_P2;PMS_P1;PMS_P2;Temp;Humidity;BMP_temperature;BMP_pressure;BME280_temperature;BME280_humidity;BME280_pressure;Samples;Min_cycle;Max_cycle;Signal;HPM_P1;HPM_P2
2024/03/13 00:00:04;;;;;;;68.20;41.15;;;;;;;;;;4979102;28;20250;-82
2024/03/13 00:02:35;;;;;;;67.63;43.05;;;;;;;;;;4977000;28;20219;-82
2024/03/13 00:05:03;;;;;;;65.15;41.47;;;;;;;;;;4977354;28;20620;-80
2024/03/13 00:07:31;;;;;;;62.53;38.78;;;;;;;;;;4978783;28;20227;-82
2024/03/13 00:10:00;;;;;;;57.38;40.03;;;;;;;;;;4979126;28;20270;-81
2024/03/13 00:12:28;;;;;;;58.85;38.85;;;;;;;;;;4977957;28;20206;-80
2024/03/13 00:14:56;;;;;;;63.72;39.00;;;;;;;;;;4977967;28;20274;-82
2024/03/13 00:17:23;;;;;;;57.90;40.58;;;;;;;;;;4978234;28;20207;-82
2024/03/13 00:19:54;;;;;;;62.63;39.47;;;;;;;;;;4978154;28;20737;-81
2024/03/13 00:22:21;;;;;;;61.50;39.30;;;;;;;;;;4977882;28;20651;-82
2024/03/13 00:24:57;;;;;;;54.17;38.20;;;;;;;;;;5155613;27;20325;-80
2024/03/13 00:27:25;;;;;;;66.30;39.85;;;;;;;;;;5135371;28;20260;-81
2024/03/13 00:29:52;;;;;;;57.15;39.90;;;;;;;;;;5132873;27;20213;-80
2024/03/13 00:32:20;;;;;;;58.40;39.40;;;;;;;;;;5133942;28;20194;-82
2024/03/13 00:34:47;;;;;;;58.70;39.15;;;;;;;;;;5134435;27;20218;-79
2024/03/13 00:37:15;;;;;;;54.13;39.70;;;;;;;;;;5134614;27;20201;-81
2024/03/13 00:39:42;;;;;;;67.15;41.67;;;;;;;;;;5134254;28;20205;-80
2024/03/13 00:42:11;;;;;;;58.40;39.35;;;;;;;;;;5134028;28;20206;-81
2024/03/13 00:44:40;;;;;;;59.53;40.15;;;;;;;;;;5134161;27;20285;-80
2024/03/13 00:47:07;;;;;;;58.38;39.83;;;;;;;;;;5133146;28;20583;-81
2024/03/13 00:49:34;;;;;;;56.20;37.60;;;;;;;;;;5134170;28;20209;-80
2024/03/13 00:52:01;;;;;;;65.65;40.85;;;;;;;;;;5133649;28;20210;-81
2024/03/13 00:54:30;;;;;;;55.25;39.03;;;;;;;;;;5134072;27;20251;-80
2024/03/13 00:56:58;;;;;;;55.28;36.88;;;;;;;;;;5134278;28;20202;-81
2024/03/13 00:59:27;;;;;;;63.78;38.00;;;;;;;;;;5134037;28;20662;-80
2024/03/13 01:01:55;;;;;;;56.65;37.08;;;;;;;;;;5133680;28;20220;-80
2024/03/13 01:04:25;;;;;;;50.08;37.03;;;;;;;;;;5133948;27;20229;-81
2024/03/13 01:06:52;;;;;;;59.42;39.50;;;;;;;;;;5134093;28;20194;-80
2024/03/13 01:09:22;;;;;;;58.20;38.53;;;;;;;;;;5139892;27;20210;-81
2024/03/13 01:11:49;;;;;;;57.80;40.25;;;;;;;;;;5141102;28;20202;-81
2024/03/13 01:14:19;;;;;;;55.50;36.92;;;;;;;;;;5142191;27;20217;-79
2024/03/13 01:16:51;;;;;;;54.30;37.47;;;;;;;;;;5134380;28;20253;-80
2024/03/13 01:19:19;;;;;;;51.45;36.20;;;;;;;;;;5133810;28;20198;-80
2024/03/13 01:21:48;;;;;;;68.07;40.95;;;;;;;;;;5132948;28;20207;-81
2024/03/13 01:24:16;;;;;;;58.58;38.67;;;;;;;;;;5133136;27;20226;-80
2024/03/13 01:26:44;;;;;;;53.03;37.13;;;;;;;;;;5133824;28;20634;-81
2024/03/13 01:29:17;;;;;;;62.42;38.70;;;;;;;;;;5132312;28;20216;-81
2024/03/13 01:31:44;;;;;;;52.13;37.55;;;;;;;;;;5133206;27;20195;-80
2024/03/13 01:34:13;;;;;;;49.95;36.03;;;;;;;;;;5131562;27;20234;-80
2024/03/13 01:39:25;;;;;;;54.15;37.30;;;;;;;;;;5120059;28;20197;-81
2024/03/13 01:55:36;;;;;;;53.45;38.00;;;;;;;;;;5095950;28;20206;-80
2024/03/13 01:58:08;;;;;;;62.88;39.13;;;;;;;;;;5119401;28;20202;-81
2024/03/13 02:03:22;;;;;;;62.38;39.75;;;;;;;;;;5118765;28;20303;-80
2024/03/13 02:05:51;;;;;;;64.97;39.03;;;;;;;;;;5118906;28;20206;-81
2024/03/13 02:08:19;;;;;;;66.35;39.00;;;;;;;;;;5119163;27;20255;-80
2024/03/13 02:10:48;;;;;;;56.25;36.08;;;;;;;;;;5118050;28;20194;-81
2024/03/13 02:13:17;;;;;;;63.67;38.50;;;;;;;;;;5118651;28;20267;-80
2024/03/13 02:15:45;;;;;;;60.20;38.08;;;;;;;;;;5119615;28;20231;-81
2024/03/13 02:18:23;;;;;;;56.05;37.00;;;;;;;;;;5118587;28;20206;-80
2024/03/13 02:20:52;;;;;;;55.42;37.55;;;;;;;;;;5118222;28;20276;-81
2024/03/13 02:23:21;;;;;;;63.60;38.42;;;;;;;;;;5118083;28;20651;-81
2024/03/13 02:25:48;;;;;;;56.00;37.78;;;;;;;;;;5116913;28;20677;-81
2024/03/13 02:28:15;;;;;;;56.03;38.70;;;;;;;;;;5116975;28;20207;-81
2024/03/13 02:30:43;;;;;;;52.30;36.40;;;;;;;;;;5117318;28;20284;-81
2024/03/13 02:33:11;;;;;;;52.80;39.70;;;;;;;;;;5128907;28;20267;-81
2024/03/13 02:35:38;;;;;;;64.47;39.60;;;;;;;;;;5133077;28;20232;-81
2024/03/13 02:38:07;;;;;;;70.80;41.15;;;;;;;;;;5133218;28;20199;-80
2024/03/13 02:40:34;;;;;;;81.38;41.13;;;;;;;;;;5123471;28;20209;-81
2024/03/13 02:43:02;;;;;;;65.97;40.70;;;;;;;;;;5117904;28;20632;-80
2024/03/13 02:45:29;;;;;;;65.95;38.17;;;;;;;;;;5118087;28;20261;-80
2024/03/13 02:47:57;;;;;;;73.57;41.85;;;;;;;;;;5116890;28;20210;-79
2024/03/13 02:50:24;;;;;;;68.85;41.58;;;;;;;;;;5117526;28;20202;-81
2024/03/13 02:52:51;;;;;;;55.42;36.63;;;;;;;;;;5117201;28;20210;-81
2024/03/13 02:55:18;;;;;;;59.42;39.25;;;;;;;;;;5116810;28;20675;-79
2024/03/13 02:57:45;;;;;;;57.50;39.53;;;;;;;;;;5117040;28;20218;-80
2024/03/13 03:00:14;;;;;;;69.72;38.92;;;;;;;;;;5116904;28;20206;-80
2024/03/13 03:02:41;;;;;;;65.32;39.95;;;;;;;;;;5116556;28;20302;-80
2024/03/13 03:05:09;;;;;;;53.05;37.03;;;;;;;;;;5117219;28;20279;-81
2024/03/13 03:07:36;;;;;;;57.00;39.55;;;;;;;;;;5117422;28;20556;-81
2024/03/13 03:10:03;;;;;;;56.13;37.22;;;;;;;;;;5117161;28;20529;-81
2024/03/13 03:12:30;;;;;;;55.10;37.20;;;;;;;;;;5116690;28;20266;-81
2024/03/13 03:14:59;;;;;;;58.95;38.80;;;;;;;;;;5116542;28;20222;-81
2024/03/13 03:17:26;;;;;;;58.08;37.85;;;;;;;;;;5116961;28;20210;-80
2024/03/13 03:19:53;;;;;;;56.47;38.13;;;;;;;;;;5116720;28;20228;-81
2024/03/13 03:22:20;;;;;;;55.40;36.65;;;;;;;;;;5117868;28;20206;-80
2024/03/13 03:24:48;;;;;;;64.65;36.40;;;;;;;;;;5118310;28;20229;-82
2024/03/13 03:27:15;;;;;;;56.65;37.80;;;;;;;;;;5118550;28;20276;-82
2024/03/13 03:29:42;;;;;;;58.15;37.20;;;;;;;;;;5117355;28;20305;-80
2024/03/13 03:32:09;;;;;;;62.85;39.55;;;;;;;;;;5118445;28;20186;-81
2024/03/13 03:34:39;;;;;;;58.97;39.28;;;;;;;;;;5116653;28;20218;-80
2024/03/13 03:37:07;;;;;;;58.60;37.70;;;;;;;;;;5117092;28;20206;-80
2024/03/13 03:39:34;;;;;;;61.55;38.10;;;;;;;;;;5116337;28;20245;-80
2024/03/13 03:42:03;;;;;;;64.18;36.75;;;;;;;;;;5117100;28;20235;-80
2024/03/13 03:44:31;;;;;;;53.20;37.42;;;;;;;;;;5118193;28;20235;-80
2024/03/13 03:46:58;;;;;;;61.17;35.60;;;;;;;;;;5118885;28;20217;-81
2024/03/13 03:49:25;;;;;;;60.25;38.40;;;;;;;;;;5119121;28;20217;-81
2024/03/13 03:51:53;;;;;;;61.80;37.00;;;;;;;;;;5118579;28;20266;-81
2024/03/13 03:54:21;;;;;;;58.63;35.63;;;;;;;;;;5118724;28;20248;-79
2024/03/13 03:56:48;;;;;;;60.30;38.60;;;;;;;;;;5118237;28;20533;-80
2024/03/13 03:59:15;;;;;;;52.47;38.80;;;;;;;;;;5115489;28;20293;-80
2024/03/13 04:01:43;;;;;;;54.50;35.70;;;;;;;;;;5115450;28;20206;-80
2024/03/13 04:04:13;;;;;;;48.85;35.67;;;;;;;;;;5115889;28;20240;-80
2024/03/13 04:06:41;;;;;;;52.13;34.67;;;;;;;;;;5115402;28;20282;-81
2024/03/13 04:09:15;;;;;;;54.35;36.22;;;;;;;;;;5115835;28;20197;-80
2024/03/13 04:11:42;;;;;;;41.67;31.30;;;;;;;;;;5115502;28;20221;-80
2024/03/13 04:14:10;;;;;;;62.65;36.47;;;;;;;;;;5115270;28;20225;-79
2024/03/13 04:16:37;;;;;;;48.58;36.08;;;;;;;;;;5115241;28;20670;-80
2024/03/13 04:19:06;;;;;;;51.25;33.97;;;;;;;;;;5115583;28;20263;-80
2024/03/13 04:21:33;;;;;;;48.83;35.92;;;;;;;;;;5114709;28;20199;-80
2024/03/13 04:24:00;;;;;;;53.17;35.95;;;;;;;;;;5115004;28;20636;-81
2024/03/13 04:26:29;;;;;;;56.60;38.83;;;;;;;;;;5115397;28;20208;-80
2024/03/13 04:28:58;;;;;;;58.20;36.00;;;;;;;;;;5114554;28;20202;-80
2024/03/13 04:31:26;;;;;;;53.50;34.15;;;;;;;;;;5114849;28;20190;-80
2024/03/13 04:33:53;;;;;;;47.10;33.88;;;;;;;;;;5114865;28;20226;-80
2024/03/13 04:36:21;;;;;;;51.95;33.65;;;;;;;;;;5115400;28;20231;-81
2024/03/13 04:38:51;;;;;;;52.80;37.22;;;;;;;;;;5115440;28;20231;-80
2024/03/13 04:41:18;;;;;;;49.70;35.05;;;;;;;;;;5114858;28;20198;-80
2024/03/13 04:43:45;;;;;;;51.47;33.55;;;;;;;;;;5114890;28;20283;-80
2024/03/13 04:46:15;;;;;;;49.75;32.67;;;;;;;;;;5115450;28;20202;-80
2024/03/13 04:48:43;;;;;;;50.92;32.92;;;;;;;;;;5115158;28;20680;-79
2024/03/13 04:51:10;;;;;;;44.13;31.25;;;;;;;;;;5114483;28;20238;-80
2024/03/13 04:53:37;;;;;;;46.95;33.47;;;;;;;;;;5115596;28;20226;-80
2024/03/13 04:56:04;;;;;;;44.45;32.40;;;;;;;;;;5115465;28;20204;-81
2024/03/13 04:58:31;;;;;;;44.75;33.78;;;;;;;;;;5115263;28;20666;-81
2024/03/13 05:00:58;;;;;;;39.70;32.75;;;;;;;;;;5116611;28;20211;-81
2024/03/13 05:03:25;;;;;;;46.45;31.85;;;;;;;;;;5115439;28;20719;-81
2024/03/13 05:05:53;;;;;;;43.75;31.88;;;;;;;;;;5114577;28;20759;-80
2024/03/13 05:08:20;;;;;;;49.63;32.38;;;;;;;;;;5115358;28;20232;-81
2024/03/13 05:10:47;;;;;;;44.35;32.53;;;;;;;;;;5116743;28;20248;-81
2024/03/13 05:13:15;;;;;;;46.00;31.70;;;;;;;;;;5119017;28;20203;-80
2024/03/13 05:15:43;;;;;;;38.13;27.17;;;;;;;;;;5119207;28;20199;-80
2024/03/13 05:18:10;;;;;;;37.58;27.67;;;;;;;;;;5119339;28;20283;-80
2024/03/13 05:20:37;;;;;;;36.15;29.35;;;;;;;;;;5118599;28;20210;-82
2024/03/13 05:23:06;;;;;;;37.45;29.58;;;;;;;;;;5118501;28;20282;-80
2024/03/13 05:25:33;;;;;;;35.67;29.52;;;;;;;;;;5118792;28;20238;-81
2024/03/13 05:28:02;;;;;;;39.50;29.23;;;;;;;;;;5117640;28;21059;-80
2024/03/13 05:30:29;;;;;;;31.67;26.73;;;;;;;;;;5118635;28;20182;-80
2024/03/13 05:32:57;;;;;;;42.05;30.17;;;;;;;;;;5118274;28;20202;-79
2024/03/13 05:35:24;;;;;;;29.95;25.85;;;;;;;;;;5118583;28;20219;-80
2024/03/13 05:37:51;;;;;;;37.03;29.10;;;;;;;;;;5118561;28;20202;-81
2024/03/13 05:40:19;;;;;;;35.50;28.67;;;;;;;;;;5118726;28;20202;-80
2024/03/13 05:42:46;;;;;;;35.78;27.60;;;;;;;;;;5118020;28;20459;-79
2024/03/13 05:45:14;;;;;;;36.25;29.75;;;;;;;;;;5118352;28;20253;-79
2024/03/13 05:47:41;;;;;;;37.08;28.13;;;;;;;;;;5118604;28;20690;-80
2024/03/13 05:50:08;;;;;;;37.25;33.30;;;;;;;;;;5118723;28;20212;-81
2024/03/13 05:52:36;;;;;;;27.93;25.13;;;;;;;;;;5116905;28;20213;-80
2024/03/13 05:55:03;;;;;;;37.47;28.58;;;;;;;;;;5118573;28;20517;-80
2024/03/13 05:57:30;;;;;;;32.60;29.10;;;;;;;;;;5121101;28;20233;-81
2024/03/13 05:59:58;;;;;;;32.20;27.03;;;;;;;;;;5126226;28;20428;-81
2024/03/13 06:02:25;;;;;;;31.42;26.88;;;;;;;;;;5124436;28;20452;-80
2024/03/13 06:05:02;;;;;;;31.30;27.23;;;;;;;;;;5121240;28;20226;-80
2024/03/13 06:07:29;;;;;;;40.00;29.40;;;;;;;;;;5118278;28;20182;-80
2024/03/13 06:09:56;;;;;;;32.42;28.42;;;;;;;;;;5117628;28;20501;-81
2024/03/13 06:12:23;;;;;;;31.48;27.90;;;;;;;;;;5117238;28;20208;-80
2024/03/13 06:14:52;;;;;;;30.65;27.48;;;;;;;;;;5118113;28;20237;-80
2024/03/13 06:17:19;;;;;;;32.97;28.17;;;;;;;;;;5118221;28;20234;-80
2024/03/13 06:19:46;;;;;;;32.00;28.57;;;;;;;;;;5117350;28;20214;-80
2024/03/13 06:22:14;;;;;;;31.30;26.50;;;;;;;;;;5117511;28;20444;-80
2024/03/13 06:24:41;;;;;;;32.60;26.80;;;;;;;;;;5116642;28;20496;-80
2024/03/13 06:27:15;;;;;;;31.70;26.50;;;;;;;;;;5117887;28;20655;-81
2024/03/13 06:29:57;;;;;;;32.63;26.58;;;;;;;;;;5117993;28;20762;-82
2024/03/13 06:32:25;;;;;;;29.77;26.35;;;;;;;;;;5117033;28;20259;-81
2024/03/13 06:34:52;;;;;;;29.50;25.60;;;;;;;;;;5117370;28;20230;-80
2024/03/13 06:37:19;;;;;;;29.90;26.02;;;;;;;;;;5117231;28;20543;-81
2024/03/13 06:39:46;;;;;;;29.90;26.63;;;;;;;;;;5117209;28;20210;-79
2024/03/13 06:42:13;;;;;;;32.38;28.63;;;;;;;;;;5116508;28;20206;-79
2024/03/13 06:44:40;;;;;;;32.63;29.23;;;;;;;;;;5117303;27;20276;-81
2024/03/13 06:47:07;;;;;;;31.35;27.92;;;;;;;;;;5117508;28;20444;-80
2024/03/13 06:49:35;;;;;;;29.13;25.98;;;;;;;;;;5116790;28;20203;-81
2024/03/13 06:52:03;;;;;;;28.97;25.97;;;;;;;;;;5116680;28;20206;-80
2024/03/13 06:54:30;;;;;;;30.80;27.40;;;;;;;;;;5116402;28;20468;-80
2024/03/13 06:56:57;;;;;;;28.70;25.67;;;;;;;;;;5115511;28;20440;-80
2024/03/13 06:59:24;;;;;;;30.10;25.87;;;;;;;;;;5116762;28;20436;-81
2024/03/13 07:01:52;;;;;;;26.30;23.48;;;;;;;;;;5116409;28;20936;-82
2024/03/13 07:04:22;;;;;;;26.10;23.40;;;;;;;;;;5115825;28;20258;-82
2024/03/13 07:06:56;;;;;;;27.15;24.38;;;;;;;;;;5116369;28;20428;-81
2024/03/13 07:09:23;;;;;;;25.00;22.53;;;;;;;;;;5115747;28;20200;-81
2024/03/13 07:11:50;;;;;;;26.77;23.53;;;;;;;;;;5115420;28;20876;-81
2024/03/13 07:14:17;;;;;;;24.53;22.03;;;;;;;;;;5116029;28;20445;-82
2024/03/13 07:16:44;;;;;;;26.17;23.37;;;;;;;;;;5115675;28;20418;-82
2024/03/13 07:19:13;;;;;;;27.70;24.30;;;;;;;;;;5115779;28;20434;-81
2024/03/13 07:21:40;;;;;;;28.95;25.95;;;;;;;;;;5115557;28;20476;-81
2024/03/13 07:24:08;;;;;;;24.57;21.97;;;;;;;;;;5115337;28;20247;-81
2024/03/13 07:26:35;;;;;;;26.67;23.88;;;;;;;;;;5116286;28;20493;-81
2024/03/13 07:29:04;;;;;;;30.33;24.87;;;;;;;;;;5115814;28;20206;-81
2024/03/13 07:31:31;;;;;;;25.65;23.30;;;;;;;;;;5115040;28;20446;-81
2024/03/13 07:33:58;;;;;;;29.57;26.63;;;;;;;;;;5115402;28;20222;-81
2024/03/13 07:36:25;;;;;;;26.17;23.57;;;;;;;;;;5115583;28;20496;-81
2024/03/13 07:38:52;;;;;;;30.30;27.10;;;;;;;;;;5116028;28;20465;-82
2024/03/13 07:41:19;;;;;;;25.97;23.30;;;;;;;;;;5114836;28;21044;-81
2024/03/13 07:43:46;;;;;;;27.48;24.75;;;;;;;;;;5115426;28;20528;-81
2024/03/13 07:46:15;;;;;;;28.97;26.07;;;;;;;;;;5114675;28;20620;-82
2024/03/13 07:48:42;;;;;;;28.02;25.30;;;;;;;;;;5114889;28;20811;-82
2024/03/13 07:51:09;;;;;;;26.42;23.92;;;;;;;;;;5115038;28;20257;-81
2024/03/13 07:53:36;;;;;;;27.10;24.00;;;;;;;;;;5115065;28;20223;-81
2024/03/13 07:56:04;;;;;;;25.03;22.60;;;;;;;;;;5115146;28;20478;-81
2024/03/13 07:58:32;;;;;;;24.80;22.57;;;;;;;;;;5115139;28;20452;-81
2024/03/13 08:01:01;;;;;;;25.77;23.17;;;;;;;;;;5114240;28;20560;-82
2024/03/13 08:03:28;;;;;;;25.20;22.90;;;;;;;;;;5114871;28;20448;-82
2024/03/13 08:05:56;;;;;;;25.40;22.70;;;;;;;;;;5115326;28;20545;-81
2024/03/13 08:08:23;;;;;;;25.57;23.10;;;;;;;;;;5115199;28;20210;-81
2024/03/13 08:10:50;;;;;;;24.03;21.80;;;;;;;;;;5114395;28;20468;-82
2024/03/13 08:13:17;;;;;;;24.33;22.03;;;;;;;;;;5115185;28;20530;-82
2024/03/13 08:15:44;;;;;;;25.07;22.67;;;;;;;;;;5115182;28;20799;-82
2024/03/13 08:18:15;;;;;;;24.83;22.53;;;;;;;;;;5115370;28;20471;-83
2024/03/13 08:20:42;;;;;;;24.80;22.40;;;;;;;;;;5113855;28;20474;-81
2024/03/13 08:23:10;;;;;;;24.00;21.53;;;;;;;;;;5114854;28;20448;-83
2024/03/13 08:25:37;;;;;;;23.57;21.37;;;;;;;;;;5114423;28;20899;-81
2024/03/13 08:28:07;;;;;;;24.10;21.50;;;;;;;;;;5115124;28;20439;-81
2024/03/13 08:30:34;;;;;;;22.80;20.77;;;;;;;;;;5114146;28;20471;-83
2024/03/13 08:33:01;;;;;;;21.90;20.00;;;;;;;;;;5114279;28;20440;-81
2024/03/13 08:35:29;;;;;;;24.77;22.20;;;;;;;;;;5114974;28;20503;-82
2024/03/13 08:37:59;;;;;;;23.10;20.90;;;;;;;;;;5114321;28;20534;-83
2024/03/13 08:40:28;;;;;;;24.40;22.07;;;;;;;;;;5114482;28;20452;-81
2024/03/13 08:42:55;;;;;;;23.07;21.00;;;;;;;;;;5113975;28;20970;-82
2024/03/13 08:45:22;;;;;;;22.93;21.03;;;;;;;;;;5116478;28;20922;-82
2024/03/13 08:47:50;;;;;;;21.93;20.03;;;;;;;;;;5118888;28;20448;-82
2024/03/13 08:50:18;;;;;;;23.50;21.33;;;;;;;;;;5118423;28;20420;-81
2024/03/13 08:52:45;;;;;;;23.77;21.50;;;;;;;;;;5117532;28;20471;-81
2024/03/13 08:55:13;;;;;;;23.60;21.50;;;;;;;;;;5118243;28;20551;-81
2024/03/13 08:57:40;;;;;;;22.03;20.13;;;;;;;;;;5118242;28;20978;-82
2024/03/13 09:00:10;;;;;;;22.13;20.37;;;;;;;;;;5118809;28;20411;-82
2024/03/13 09:02:37;;;;;;;20.60;18.70;;;;;;;;;;5117871;28;20505;-83
2024/03/13 09:05:07;;;;;;;21.97;20.17;;;;;;;;;;5118668;28;20439;-81
2024/03/13 09:07:34;;;;;;;23.27;21.27;;;;;;;;;;5118563;28;20985;-81
2024/03/13 09:10:01;;;;;;;24.43;21.87;;;;;;;;;;5118364;28;20476;-81
2024/03/13 09:12:29;;;;;;;23.20;21.10;;;;;;;;;;5117418;28;20459;-82
2024/03/13 09:14:56;;;;;;;21.83;20.03;;;;;;;;;;5118437;28;20488;-81
2024/03/13 09:17:24;;;;;;;22.03;19.87;;;;;;;;;;5118521;28;20822;-82
2024/03/13 09:19:51;;;;;;;22.87;21.00;;;;;;;;;;5118161;28;20462;-83
2024/03/13 09:22:19;;;;;;;22.20;20.40;;;;;;;;;;5117356;28;20448;-83
2024/03/13 09:24:46;;;;;;;22.43;20.60;;;;;;;;;;5117109;28;21062;-81
2024/03/13 09:27:13;;;;;;;20.37;17.50;;;;;;;;;;5118080;28;20492;-82
2024/03/13 09:29:40;;;;;;;20.53;18.90;;;;;;;;;;5118219;28;20963;-81
2024/03/13 09:32:07;;;;;;;21.60;19.53;;;;;;;;;;5117271;28;20774;-82
2024/03/13 09:34:36;;;;;;;22.90;20.43;;;;;;;;;;5116753;28;20454;-81
2024/03/13 09:37:04;;;;;;;22.93;20.83;;;;;;;;;;5117681;28;20432;-81
2024/03/13 09:39:31;;;;;;;23.73;21.90;;;;;;;;;;5117939;28;20444;-82
2024/03/13 09:41:59;;;;;;;24.30;21.90;;;;;;;;;;5116389;28;20467;-82
2024/03/13 09:44:26;;;;;;;24.57;22.40;;;;;;;;;;5117936;28;20456;-82
2024/03/13 09:46:53;;;;;;;24.83;22.77;;;;;;;;;;5118251;28;20477;-82
2024/03/13 09:49:20;;;;;;;26.27;23.70;;;;;;;;;;5117547;28;20451;-81
2024/03/13 09:51:47;;;;;;;24.43;22.20;;;;;;;;;;5116252;28;20472;-81
2024/03/13 09:54:16;;;;;;;25.77;23.70;;;;;;;;;;5117225;28;20968;-81
2024/03/13 09:56:43;;;;;;;25.03;22.80;;;;;;;;;;5116958;28;20452;-82
2024/03/13 09:59:12;;;;;;;24.63;22.77;;;;;;;;;;5116853;28;20488;-81
2024/03/13 10:01:39;;;;;;;25.80;23.50;;;;;;;;;;5116774;28;20497;-81
2024/03/13 10:04:10;;;;;;;25.23;23.13;;;;;;;;;;5117417;28;20461;-82
2024/03/13 10:06:38;;;;;;;23.20;21.30;;;;;;;;;;5117893;28;20519;-82
2024/03/13 10:09:11;;;;;;;24.87;22.73;;;;;;;;;;5117067;28;20538;-81
2024/03/13 10:11:39;;;;;;;23.07;21.00;;;;;;;;;;5117106;28;20436;-81
2024/03/13 10:14:07;;;;;;;24.53;22.57;;;;;;;;;;5117398;28;20965;-81
2024/03/13 10:16:34;;;;;;;24.13;22.23;;;;;;;;;;5117531;28;20504;-81
2024/03/13 10:19:01;;;;;;;23.47;21.67;;;;;;;;;;5116585;28;20416;-81
2024/03/13 10:21:28;;;;;;;22.33;20.60;;;;;;;;;;5117077;28;20432;-82
2024/03/13 10:23:55;;;;;;;24.20;21.60;;;;;;;;;;5115813;28;20979;-82
2024/03/13 10:26:22;;;;;;;24.17;21.90;;;;;;;;;;5116360;28;20454;-81
2024/03/13 10:28:49;;;;;;;22.43;20.63;;;;;;;;;;5116895;28;20500;-81
2024/03/13 10:31:17;;;;;;;23.33;21.53;;;;;;;;;;5116243;28;20997;-82
2024/03/13 10:33:44;;;;;;;25.07;22.73;;;;;;;;;;5117028;28;20469;-80
2024/03/13 10:36:13;;;;;;;22.60;21.00;;;;;;;;;;5116649;28;20474;-81
2024/03/13 10:38:41;;;;;;;20.87;19.27;;;;;;;;;;5116873;28;20458;-82
2024/03/13 10:41:09;;;;;;;20.77;19.37;;;;;;;;;;5116039;28;20924;-80
2024/03/13 10:43:36;;;;;;;23.43;21.47;;;;;;;;;;5117093;28;20560;-81
2024/03/13 10:46:04;;;;;;;22.23;20.50;;;;;;;;;;5116121;27;20471;-82
2024/03/13 10:48:32;;;;;;;19.87;18.47;;;;;;;;;;5117011;28;20826;-81
2024/03/13 10:51:00;;;;;;;20.70;18.90;;;;;;;;;;5115711;28;20928;-81
2024/03/13 10:53:27;;;;;;;21.10;19.60;;;;;;;;;;5116489;28;20440;-81
2024/03/13 10:55:54;;;;;;;21.37;19.70;;;;;;;;;;5116460;28;20419;-81
2024/03/13 10:58:21;;;;;;;22.00;20.30;;;;;;;;;;5114647;28;20444;-82
2024/03/13 11:00:48;;;;;;;20.80;19.33;;;;;;;;;;5116198;28;20454;-81
2024/03/13 11:03:15;;;;;;;21.20;19.70;;;;;;;;;;5116458;28;20432;-80
2024/03/13 11:05:43;;;;;;;20.50;19.03;;;;;;;;;;5116029;28;20445;-81
2024/03/13 11:08:10;;;;;;;22.50;20.80;;;;;;;;;;5115573;28;20435;-81
2024/03/13 11:10:37;;;;;;;21.23;19.77;;;;;;;;;;5115951;28;20478;-81
2024/03/13 11:13:05;;;;;;;20.23;18.90;;;;;;;;;;5116211;28;20495;-81
2024/03/13 11:15:32;;;;;;;20.40;19.10;;;;;;;;;;5115780;28;20972;-81
2024/03/13 11:17:59;;;;;;;21.80;20.40;;;;;;;;;;5115543;28;20428;-82
2024/03/13 11:20:27;;;;;;;21.87;20.27;;;;;;;;;;5115426;28;20432;-81
2024/03/13 11:22:54;;;;;;;22.77;21.00;;;;;;;;;;5114807;28;20452;-82
2024/03/13 11:25:21;;;;;;;24.60;22.80;;;;;;;;;;5114909;28;20976;-80
2024/03/13 11:27:49;;;;;;;21.43;20.13;;;;;;;;;;5115716;28;20472;-81
2024/03/13 11:30:17;;;;;;;22.27;20.67;;;;;;;;;;5115490;28;20479;-81
2024/03/13 11:32:44;;;;;;;22.93;21.13;;;;;;;;;;5114658;28;20666;-81
2024/03/13 11:35:12;;;;;;;21.80;20.20;;;;;;;;;;5115373;28;20526;-80
2024/03/13 11:37:39;;;;;;;17.60;16.63;;;;;;;;;;5115353;28;20505;-81
2024/03/13 11:40:06;;;;;;;22.20;20.40;;;;;;;;;;5115468;28;20525;-81
2024/03/13 11:42:33;;;;;;;23.40;21.63;;;;;;;;;;5114690;28;20539;-81
2024/03/13 11:45:15;;;;;;;23.27;21.27;;;;;;;;;;5115062;28;20894;-82
2024/03/13 11:47:42;;;;;;;23.70;21.80;;;;;;;;;;5114394;28;21070;-82
2024/03/13 11:50:10;;;;;;;24.77;22.87;;;;;;;;;;5115305;28;20817;-80
2024/03/13 11:52:38;;;;;;;21.60;20.10;;;;;;;;;;5114685;28;20876;-81
2024/03/13 11:55:05;;;;;;;25.60;23.30;;;;;;;;;;5114963;28;20495;-81
2024/03/13 11:57:32;;;;;;;23.73;21.83;;;;;;;;;;5113961;28;20471;-81
2024/03/13 11:59:59;;;;;;;23.30;21.27;;;;;;;;;;5115086;28;20438;-81
2024/03/13 12:02:39;;;;;;;23.73;21.80;;;;;;;;;;5114651;28;20453;-81
2024/03/13 12:05:07;;;;;;;22.90;21.10;;;;;;;;;;5114308;28;20419;-81
2024/03/13 12:07:35;;;;;;;22.10;20.53;;;;;;;;;;5114198;28;20493;-82
2024/03/13 12:10:02;;;;;;;21.97;20.27;;;;;;;;;;5115384;28;20772;-81
2024/03/13 12:12:30;;;;;;;21.77;20.23;;;;;;;;;;5114130;28;20426;-81
2024/03/13 12:14:57;;;;;;;23.00;21.20;;;;;;;;;;5114212;28;20479;-81
2024/03/13 12:17:25;;;;;;;20.07;18.40;;;;;;;;;;5114121;28;20440;-82
2024/03/13 12:19:52;;;;;;;19.93;18.43;;;;;;;;;;5115190;28;20436;-81
2024/03/13 12:22:19;;;;;;;22.50;20.53;;;;;;;;;;5114200;28;20439;-82
2024/03/13 12:24:47;;;;;;;19.47;18.20;;;;;;;;;;5114190;28;20512;-82
2024/03/13 12:27:14;;;;;;;23.57;21.47;;;;;;;;;;5114229;28;20465;-81
2024/03/13 12:29:41;;;;;;;20.20;18.70;;;;;;;;;;5113964;28;20427;-80
2024/03/13 12:32:08;;;;;;;21.50;19.70;;;;;;;;;;5113696;28;20429;-81
2024/03/13 12:34:36;;;;;;;24.03;21.97;;;;;;;;;;5113767;28;21388;-81
2024/03/13 12:37:03;;;;;;;25.27;22.90;;;;;;;;;;5114105;28;20414;-81
2024/03/13 12:39:31;;;;;;;22.73;20.97;;;;;;;;;;5113982;28;20463;-81
2024/03/13 12:41:58;;;;;;;23.83;21.93;;;;;;;;;;5114158;28;20483;-80
2024/03/13 12:44:28;;;;;;;23.03;21.20;;;;;;;;;;5114230;28;20456;-81
2024/03/13 12:46:56;;;;;;;23.97;21.87;;;;;;;;;;5114810;28;20492;-81
2024/03/13 12:49:23;;;;;;;25.77;23.60;;;;;;;;;;5113927;28;20442;-81
2024/03/13 12:51:54;;;;;;;24.10;22.30;;;;;;;;;;5114218;28;20445;-81
2024/03/13 12:54:21;;;;;;;24.07;21.80;;;;;;;;;;5114515;28;20461;-81
2024/03/13 12:56:50;;;;;;;24.43;22.20;;;;;;;;;;5113809;28;20451;-82
2024/03/13 12:59:18;;;;;;;25.23;23.03;;;;;;;;;;5113375;28;20964;-81
2024/03/13 13:01:45;;;;;;;25.33;23.23;;;;;;;;;;5113781;28;20449;-82
2024/03/13 13:04:14;;;;;;;24.60;22.10;;;;;;;;;;5113900;28;20453;-82
2024/03/13 13:06:42;;;;;;;26.07;23.77;;;;;;;;;;5114654;28;20462;-81
2024/03/13 13:09:09;;;;;;;25.60;23.13;;;;;;;;;;5113818;28;20483;-80
2024/03/13 13:11:40;;;;;;;24.67;22.60;;;;;;;;;;5112023;28;20444;-81
2024/03/13 13:14:09;;;;;;;23.77;21.77;;;;;;;;;;5114005;28;20452;-81
2024/03/13 13:16:37;;;;;;;24.47;22.53;;;;;;;;;;5114262;28;20460;-82
2024/03/13 13:19:04;;;;;;;17.67;16.40;;;;;;;;;;5113468;28;20442;-82
2024/03/13 13:21:32;;;;;;;23.43;21.43;;;;;;;;;;5113151;28;20513;-81
2024/03/13 13:23:59;;;;;;;24.60;22.60;;;;;;;;;;5113442;28;20502;-81
2024/03/13 13:26:26;;;;;;;24.13;22.10;;;;;;;;;;5113703;28;20778;-82
2024/03/13 13:28:53;;;;;;;25.30;23.10;;;;;;;;;;5113784;28;20924;-81
2024/03/13 13:31:20;;;;;;;22.13;20.53;;;;;;;;;;5114252;28;20842;-81
2024/03/13 13:33:47;;;;;;;23.90;22.10;;;;;;;;;;5117111;28;20434;-81
2024/03/13 13:36:14;;;;;;;26.70;24.33;;;;;;;;;;5117442;28;20449;-80
2024/03/13 13:38:41;;;;;;;26.67;24.20;;;;;;;;;;5117547;28;20438;-82
2024/03/13 13:41:08;;;;;;;26.07;24.00;;;;;;;;;;5116842;28;21016;-81
2024/03/13 13:43:36;;;;;;;26.83;24.43;;;;;;;;;;5117231;28;20784;-81
2024/03/13 13:46:05;;;;;;;26.80;24.47;;;;;;;;;;5118896;28;20448;-81
2024/03/13 13:48:32;;;;;;;27.53;25.03;;;;;;;;;;5120246;28;20486;-82
2024/03/13 13:51:00;;;;;;;29.07;26.33;;;;;;;;;;5120528;28;20419;-81
2024/03/13 13:53:29;;;;;;;29.17;26.37;;;;;;;;;;5116594;28;20533;-82
2024/03/13 13:55:56;;;;;;;30.40;27.50;;;;;;;;;;5117232;28;20432;-81
2024/03/13 13:58:24;;;;;;;30.10;26.10;;;;;;;;;;5116834;28;20920;-81
2024/03/13 14:00:51;;;;;;;31.23;27.93;;;;;;;;;;5116278;28;20451;-81
2024/03/13 14:03:20;;;;;;;33.23;29.67;;;;;;;;;;5116965;28;20465;-82
2024/03/13 14:05:47;;;;;;;35.30;28.97;;;;;;;;;;5116666;28;20454;-82
2024/03/13 14:08:15;;;;;;;26.00;23.37;;;;;;;;;;5116417;28;20481;-81
2024/03/13 14:10:42;;;;;;;38.27;30.47;;;;;;;;;;5116661;28;20493;-81
2024/03/13 14:13:09;;;;;;;34.17;30.70;;;;;;;;;;5116900;28;20444;-82
2024/03/13 14:15:37;;;;;;;35.80;31.97;;;;;;;;;;5115522;28;20838;-80
2024/03/13 14:18:06;;;;;;;34.23;30.60;;;;;;;;;;5117012;28;20799;-81
2024/03/13 14:20:33;;;;;;;35.00;31.50;;;;;;;;;;5116969;28;20452;-80
2024/03/13 14:23:00;;;;;;;38.30;32.57;;;;;;;;;;5115488;28;20902;-80
2024/03/13 14:25:27;;;;;;;36.10;32.30;;;;;;;;;;5116336;28;20463;-81
2024/03/13 14:27:55;;;;;;;44.80;34.30;;;;;;;;;;5116429;28;20494;-81
2024/03/13 14:30:22;;;;;;;36.07;32.17;;;;;;;;;;5116570;28;20843;-81
2024/03/13 14:32:49;;;;;;;40.53;35.30;;;;;;;;;;5117024;28;20455;-82
2024/03/13 14:35:17;;;;;;;45.50;34.90;;;;;;;;;;5115378;28;20470;-81
2024/03/13 14:37:44;;;;;;;50.43;36.63;;;;;;;;;;5117446;28;20937;-81